sensor_id;sensor_type;location;lat;lon;timestamp;P1;durP1;ratioP1;P2;durP2;ratioP2
15106;SDS011;7654;45.308;-75.096;2023-05-28T00:00:37;0.17;;;0.17;;
15106;SDS011;7654;45.308;-75.096;2023-05-28T00:03:09;0.10;;;0.10;;
15106;SDS011;7654;45.308;-75.096;2023-05-28T00:05:41;0.10;;;0.10;;
15106;SDS011;7654;45.308;-75.096;2023-05-28T00:08:13;0.10;;;0.10;;
15106;SDS011;7654;45.308;-75.096;2023-05-28T00:10:43;0.10;;;0.10;;
15106;SDS011;7654;45.308;-75.096;2023-05-28T00:13:17;0.10;;;0.10;;
15106;SDS011;7654;45.308;-75.096;2023-05-28T00:15:48;0.10;;;0.10;;
15106;SDS011;7654;45.308;-75.096;2023-05-28T00:18:21;0.20;;;0.20;;
15106;SDS011;7654;45.308;-75.096;2023-05-28T00:20:55;0.10;;;0.10;;
15106;SDS011;7654;45.308;-75.096;2023-05-28T00:23:26;0.20;;;0.20;;
15106;SDS011;7654;45.308;-75.096;2023-05-28T00:25:58;0.10;;;0.10;;
15106;SDS011;7654;45.308;-75.096;2023-05-28T00:28:29;0.20;;;0.20;;
15106;SDS011;7654;45.308;-75.096;2023-05-28T00:31:00;0.20;;;0.20;;
15106;SDS011;7654;45.308;-75.096;2023-05-28T00:33:32;0.20;;;0.20;;
15106;SDS011;7654;45.308;-75.096;2023-05-28T00:36:03;0.20;;;0.20;;
15106;SDS011;7654;45.308;-75.096;2023-05-28T00:38:34;0.20;;;0.20;;
15106;SDS011;7654;45.308;-75.096;2023-05-28T00:41:05;0.20;;;0.20;;
15106;SDS011;7654;45.308;-75.096;2023-05-28T00:43:36;0.13;;;0.13;;
15106;SDS011;7654;45.308;-75.096;2023-05-28T00:46:06;0.20;;;0.20;;
15106;SDS011;7654;45.308;-75.096;2023-05-28T00:48:38;0.20;;;0.20;;
15106;SDS011;7654;45.308;-75.096;2023-05-28T00:51:08;0.20;;;0.20;;
15106;SDS011;7654;45.308;-75.096;2023-05-28T00:53:39;0.20;;;0.20;;
15106;SDS011;7654;45.308;-75.096;2023-05-28T00:56:10;0.20;;;0.20;;
15106;SDS011;7654;45.308;-75.096;2023-05-28T00:58:43;0.20;;;0.20;;
15106;SDS011;7654;45.308;-75.096;2023-05-28T01:01:16;0.20;;;0.20;;
15106;SDS011;7654;45.308;-75.096;2023-05-28T01:03:50;0.20;;;0.20;;
15106;SDS011;7654;45.308;-75.096;2023-05-28T01:06:21;0.20;;;0.20;;
15106;SDS011;7654;45.308;-75.096;2023-05-28T01:08:52;0.20;;;0.20;;
15106;SDS011;7654;45.308;-75.096;2023-05-28T01:11:23;0.20;;;0.20;;
15106;SDS011;7654;45.308;-75.096;2023-05-28T01:13:53;0.30;;;0.30;;
15106;SDS011;7654;45.308;-75.096;2023-05-28T01:16:24;0.17;;;0.17;;
15106;SDS011;7654;45.308;-75.096;2023-05-28T01:18:57;0.20;;;0.20;;
15106;SDS011;7654;45.308;-75.096;2023-05-28T01:21:29;0.20;;;0.20;;
15106;SDS011;7654;45.308;-75.096;2023-05-28T01:24:01;0.20;;;0.20;;
15106;SDS011;7654;45.308;-75.096;2023-05-28T01:26:33;0.20;;;0.20;;
15106;SDS011;7654;45.308;-75.096;2023-05-28T01:29:12;0.20;;;0.20;;
15106;SDS011;7654;45.308;-75.096;2023-05-28T01:31:43;0.20;;;0.20;;
15106;SDS011;7654;45.308;-75.096;2023-05-28T01:34:14;0.20;;;0.20;;
15106;SDS011;7654;45.308;-75.096;2023-05-28T01:36:46;0.20;;;0.20;;
15106;SDS011;7654;45.308;-75.096;2023-05-28T01:39:23;0.20;;;0.20;;
15106;SDS011;7654;45.308;-75.096;2023-05-28T01:41:55;0.30;;;0.30;;
15106;SDS011;7654;45.308;-75.096;2023-05-28T01:44:27;0.30;;;0.30;;
15106;SDS011;7654;45.308;-75.096;2023-05-28T01:46:58;0.30;;;0.30;;
15106;SDS011;7654;45.308;-75.096;2023-05-28T01:49:29;0.30;;;0.30;;
15106;SDS011;7654;45.308;-75.096;2023-05-28T01:52:01;0.20;;;0.20;;
15106;SDS011;7654;45.308;-75.096;2023-05-28T01:54:34;0.20;;;0.20;;
15106;SDS011;7654;45.308;-75.096;2023-05-28T01:57:04;0.30;;;0.30;;
15106;SDS011;7654;45.308;-75.096;2023-05-28T01:59:36;0.30;;;0.30;;
15106;SDS011;7654;45.308;-75.096;2023-05-28T02:02:08;0.20;;;0.20;;
15106;SDS011;7654;45.308;-75.096;2023-05-28T02:04:39;0.30;;;0.30;;
15106;SDS011;7654;45.308;-75.096;2023-05-28T02:07:10;0.30;;;0.30;;
15106;SDS011;7654;45.308;-75.096;2023-05-28T02:09:43;0.20;;;0.20;;
15106;SDS011;7654;45.308;-75.096;2023-05-28T02:12:13;0.20;;;0.20;;
15106;SDS011;7654;45.308;-75.096;2023-05-28T02:14:43;0.20;;;0.20;;
15106;SDS011;7654;45.308;-75.096;2023-05-28T02:17:14;0.30;;;0.30;;
15106;SDS011;7654;45.308;-75.096;2023-05-28T02:19:46;0.30;;;0.30;;
15106;SDS011;7654;45.308;-75.096;2023-05-28T02:22:16;0.30;;;0.30;;
15106;SDS011;7654;45.308;-75.096;2023-05-28T02:24:48;0.20;;;0.20;;
15106;SDS011;7654;45.308;-75.096;2023-05-28T02:27:18;0.27;;;0.27;;
15106;SDS011;7654;45.308;-75.096;2023-05-28T02:29:48;0.30;;;0.30;;
15106;SDS011;7654;45.308;-75.096;2023-05-28T02:32:19;0.30;;;0.30;;
15106;SDS011;7654;45.308;-75.096;2023-05-28T02:34:50;0.20;;;0.20;;
15106;SDS011;7654;45.308;-75.096;2023-05-28T02:37:22;0.20;;;0.20;;
15106;SDS011;7654;45.308;-75.096;2023-05-28T02:39:54;0.33;;;0.33;;
15106;SDS011;7654;45.308;-75.096;2023-05-28T02:42:24;0.30;;;0.30;;
15106;SDS011;7654;45.308;-75.096;2023-05-28T02:44:55;0.30;;;0.30;;
15106;SDS011;7654;45.308;-75.096;2023-05-28T02:47:25;0.27;;;0.27;;
15106;SDS011;7654;45.308;-75.096;2023-05-28T02:49:59;0.20;;;0.20;;
15106;SDS011;7654;45.308;-75.096;2023-05-28T02:52:29;0.20;;;0.20;;
15106;SDS011;7654;45.308;-75.096;2023-05-28T02:55:01;0.20;;;0.20;;
15106;SDS011;7654;45.308;-75.096;2023-05-28T02:57:33;0.30;;;0.30;;
15106;SDS011;7654;45.308;-75.096;2023-05-28T03:00:04;0.30;;;0.30;;
15106;SDS011;7654;45.308;-75.096;2023-05-28T03:02:36;0.30;;;0.30;;
15106;SDS011;7654;45.308;-75.096;2023-05-28T03:05:07;0.30;;;0.30;;
15106;SDS011;7654;45.308;-75.096;2023-05-28T03:07:38;0.30;;;0.30;;
15106;SDS011;7654;45.308;-75.096;2023-05-28T03:10:10;0.30;;;0.30;;
15106;SDS011;7654;45.308;-75.096;2023-05-28T03:12:41;0.20;;;0.20;;
15106;SDS011;7654;45.308;-75.096;2023-05-28T03:15:11;0.30;;;0.30;;
15106;SDS011;7654;45.308;-75.096;2023-05-28T03:17:42;0.30;;;0.30;;
15106;SDS011;7654;45.308;-75.096;2023-05-28T03:20:13;0.30;;;0.30;;
15106;SDS011;7654;45.308;-75.096;2023-05-28T03:22:43;0.30;;;0.30;;
15106;SDS011;7654;45.308;-75.096;2023-05-28T03:25:16;0.30;;;0.30;;
15106;SDS011;7654;45.308;-75.096;2023-05-28T03:27:46;0.30;;;0.30;;
15106;SDS011;7654;45.308;-75.096;2023-05-28T03:30:17;0.30;;;0.30;;
15106;SDS011;7654;45.308;-75.096;2023-05-28T03:32:48;0.30;;;0.30;;
15106;SDS011;7654;45.308;-75.096;2023-05-28T03:35:19;0.30;;;0.30;;
15106;SDS011;7654;45.308;-75.096;2023-05-28T03:37:49;0.30;;;0.30;;
15106;SDS011;7654;45.308;-75.096;2023-05-28T03:40:21;0.30;;;0.30;;
15106;SDS011;7654;45.308;-75.096;2023-05-28T03:42:52;0.20;;;0.20;;
15106;SDS011;7654;45.308;-75.096;2023-05-28T03:45:22;0.30;;;0.30;;
15106;SDS011;7654;45.308;-75.096;2023-05-28T03:47:52;0.30;;;0.30;;
15106;SDS011;7654;45.308;-75.096;2023-05-28T03:50:23;0.30;;;0.30;;
15106;SDS011;7654;45.308;-75.096;2023-05-28T03:52:54;0.30;;;0.30;;
15106;SDS011;7654;45.308;-75.096;2023-05-28T03:55:26;0.30;;;0.30;;
15106;SDS011;7654;45.308;-75.096;2023-05-28T03:57:57;0.37;;;0.37;;
15106;SDS011;7654;45.308;-75.096;2023-05-28T04:00:27;0.20;;;0.20;;
15106;SDS011;7654;45.308;-75.096;2023-05-28T04:02:57;0.30;;;0.30;;
15106;SDS011;7654;45.308;-75.096;2023-05-28T04:05:28;0.30;;;0.30;;
15106;SDS011;7654;45.308;-75.096;2023-05-28T04:08:01;0.30;;;0.30;;
15106;SDS011;7654;45.308;-75.096;2023-05-28T04:10:32;0.30;;;0.30;;
15106;SDS011;7654;45.308;-75.096;2023-05-28T04:13:03;0.30;;;0.30;;
15106;SDS011;7654;45.308;-75.096;2023-05-28T04:15:33;0.30;;;0.30;;
15106;SDS011;7654;45.308;-75.096;2023-05-28T04:18:04;0.20;;;0.20;;
15106;SDS011;7654;45.308;-75.096;2023-05-28T04:20:34;0.30;;;0.30;;
15106;SDS011;7654;45.308;-75.096;2023-05-28T04:23:04;0.30;;;0.30;;
15106;SDS011;7654;45.308;-75.096;2023-05-28T04:25:36;0.20;;;0.20;;
15106;SDS011;7654;45.308;-75.096;2023-05-28T04:28:07;0.20;;;0.20;;
15106;SDS011;7654;45.308;-75.096;2023-05-28T04:30:38;0.30;;;0.30;;
15106;SDS011;7654;45.308;-75.096;2023-05-28T04:33:09;0.30;;;0.30;;
15106;SDS011;7654;45.308;-75.096;2023-05-28T04:35:43;0.30;;;0.30;;
15106;SDS011;7654;45.308;-75.096;2023-05-28T04:38:14;0.30;;;0.30;;
15106;SDS011;7654;45.308;-75.096;2023-05-28T04:40:46;0.23;;;0.23;;
15106;SDS011;7654;45.308;-75.096;2023-05-28T04:43:17;0.30;;;0.30;;
15106;SDS011;7654;45.308;-75.096;2023-05-28T04:45:49;0.30;;;0.30;;
15106;SDS011;7654;45.308;-75.096;2023-05-28T04:48:21;0.30;;;0.30;;
15106;SDS011;7654;45.308;-75.096;2023-05-28T04:50:51;0.30;;;0.30;;
15106;SDS011;7654;45.308;-75.096;2023-05-28T04:53:22;0.20;;;0.20;;
15106;SDS011;7654;45.308;-75.096;2023-05-28T04:55:54;0.30;;;0.30;;
15106;SDS011;7654;45.308;-75.096;2023-05-28T04:58:25;0.30;;;0.30;;
15106;SDS011;7654;45.308;-75.096;2023-05-28T05:00:55;0.30;;;0.30;;
15106;SDS011;7654;45.308;-75.096;2023-05-28T05:03:26;0.40;;;0.40;;
15106;SDS011;7654;45.308;-75.096;2023-05-28T05:05:57;0.30;;;0.30;;
15106;SDS011;7654;45.308;-75.096;2023-05-28T05:08:28;0.30;;;0.30;;
15106;SDS011;7654;45.308;-75.096;2023-05-28T05:11:01;0.23;;;0.23;;
15106;SDS011;7654;45.308;-75.096;2023-05-28T05:13:33;0.30;;;0.30;;
15106;SDS011;7654;45.308;-75.096;2023-05-28T05:16:04;0.30;;;0.30;;
15106;SDS011;7654;45.308;-75.096;2023-05-28T05:18:35;0.30;;;0.30;;
15106;SDS011;7654;45.308;-75.096;2023-05-28T05:21:06;0.30;;;0.30;;
15106;SDS011;7654;45.308;-75.096;2023-05-28T05:23:37;0.37;;;0.37;;
15106;SDS011;7654;45.308;-75.096;2023-05-28T05:26:10;0.30;;;0.30;;
15106;SDS011;7654;45.308;-75.096;2023-05-28T05:28:44;0.30;;;0.30;;
15106;SDS011;7654;45.308;-75.096;2023-05-28T05:31:14;0.30;;;0.30;;
15106;SDS011;7654;45.308;-75.096;2023-05-28T05:33:44;0.30;;;0.30;;
15106;SDS011;7654;45.308;-75.096;2023-05-28T05:36:15;0.30;;;0.30;;
15106;SDS011;7654;45.308;-75.096;2023-05-28T05:38:45;0.30;;;0.30;;
15106;SDS011;7654;45.308;-75.096;2023-05-28T05:41:17;0.40;;;0.40;;
15106;SDS011;7654;45.308;-75.096;2023-05-28T05:43:48;0.30;;;0.30;;
15106;SDS011;7654;45.308;-75.096;2023-05-28T05:46:19;0.30;;;0.30;;
15106;SDS011;7654;45.308;-75.096;2023-05-28T05:48:50;0.30;;;0.30;;
15106;SDS011;7654;45.308;-75.096;2023-05-28T05:51:20;0.30;;;0.30;;
15106;SDS011;7654;45.308;-75.096;2023-05-28T05:53:51;0.30;;;0.30;;
15106;SDS011;7654;45.308;-75.096;2023-05-28T05:56:23;0.30;;;0.30;;
15106;SDS011;7654;45.308;-75.096;2023-05-28T05:58:56;0.30;;;0.30;;
15106;SDS011;7654;45.308;-75.096;2023-05-28T06:01:27;0.30;;;0.30;;
15106;SDS011;7654;45.308;-75.096;2023-05-28T06:03:58;0.30;;;0.30;;
15106;SDS011;7654;45.308;-75.096;2023-05-28T06:08:45;0.30;;;0.30;;
15106;SDS011;7654;45.308;-75.096;2023-05-28T06:11:17;0.50;;;0.50;;
15106;SDS011;7654;45.308;-75.096;2023-05-28T06:13:49;0.40;;;0.40;;
15106;SDS011;7654;45.308;-75.096;2023-05-28T06:16:20;0.40;;;0.40;;
15106;SDS011;7654;45.308;-75.096;2023-05-28T06:18:51;0.30;;;0.30;;
15106;SDS011;7654;45.308;-75.096;2023-05-28T06:21:21;0.40;;;0.40;;
15106;SDS011;7654;45.308;-75.096;2023-05-28T06:23:54;0.30;;;0.30;;
15106;SDS011;7654;45.308;-75.096;2023-05-28T06:26:26;0.40;;;0.40;;
15106;SDS011;7654;45.308;-75.096;2023-05-28T06:28:57;0.37;;;0.37;;
15106;SDS011;7654;45.308;-75.096;2023-05-28T06:31:27;0.40;;;0.40;;
15106;SDS011;7654;45.308;-75.096;2023-05-28T06:33:57;0.40;;;0.40;;
15106;SDS011;7654;45.308;-75.096;2023-05-28T06:36:29;0.37;;;0.37;;
15106;SDS011;7654;45.308;-75.096;2023-05-28T06:39:01;0.40;;;0.40;;
15106;SDS011;7654;45.308;-75.096;2023-05-28T06:41:32;0.30;;;0.30;;
15106;SDS011;7654;45.308;-75.096;2023-05-28T06:44:02;0.30;;;0.30;;
15106;SDS011;7654;45.308;-75.096;2023-05-28T06:46:33;0.40;;;0.40;;
15106;SDS011;7654;45.308;-75.096;2023-05-28T06:49:03;0.30;;;0.30;;
15106;SDS011;7654;45.308;-75.096;2023-05-28T06:51:33;0.30;;;0.30;;
15106;SDS011;7654;45.308;-75.096;2023-05-28T06:54:06;0.30;;;0.30;;
15106;SDS011;7654;45.308;-75.096;2023-05-28T06:56:36;0.30;;;0.30;;
15106;SDS011;7654;45.308;-75.096;2023-05-28T06:59:06;0.30;;;0.30;;
15106;SDS011;7654;45.308;-75.096;2023-05-28T07:01:36;0.30;;;0.30;;
15106;SDS011;7654;45.308;-75.096;2023-05-28T07:04:07;0.30;;;0.30;;
15106;SDS011;7654;45.308;-75.096;2023-05-28T07:06:38;0.30;;;0.30;;
15106;SDS011;7654;45.308;-75.096;2023-05-28T07:09:10;0.30;;;0.30;;
15106;SDS011;7654;45.308;-75.096;2023-05-28T07:11:40;0.30;;;0.30;;
15106;SDS011;7654;45.308;-75.096;2023-05-28T07:14:10;0.30;;;0.30;;
15106;SDS011;7654;45.308;-75.096;2023-05-28T07:16:40;0.23;;;0.23;;
15106;SDS011;7654;45.308;-75.096;2023-05-28T07:19:11;0.30;;;0.30;;
15106;SDS011;7654;45.308;-75.096;2023-05-28T07:21:41;0.33;;;0.33;;
15106;SDS011;7654;45.308;-75.096;2023-05-28T07:24:13;0.30;;;0.30;;
15106;SDS011;7654;45.308;-75.096;2023-05-28T07:26:43;0.30;;;0.30;;
15106;SDS011;7654;45.308;-75.096;2023-05-28T07:29:14;0.30;;;0.30;;
15106;SDS011;7654;45.308;-75.096;2023-05-28T07:31:45;0.30;;;0.30;;
15106;SDS011;7654;45.308;-75.096;2023-05-28T07:34:16;0.40;;;0.40;;
15106;SDS011;7654;45.308;-75.096;2023-05-28T07:36:47;0.40;;;0.40;;
15106;SDS011;7654;45.308;-75.096;2023-05-28T07:39:19;0.30;;;0.30;;
15106;SDS011;7654;45.308;-75.096;2023-05-28T07:41:49;0.30;;;0.30;;
15106;SDS011;7654;45.308;-75.096;2023-05-28T07:44:20;0.30;;;0.30;;
15106;SDS011;7654;45.308;-75.096;2023-05-28T07:46:50;0.30;;;0.30;;
15106;SDS011;7654;45.308;-75.096;2023-05-28T07:49:21;0.40;;;0.40;;
15106;SDS011;7654;45.308;-75.096;2023-05-28T07:51:51;0.30;;;0.30;;
15106;SDS011;7654;45.308;-75.096;2023-05-28T07:54:23;0.30;;;0.30;;
15106;SDS011;7654;45.308;-75.096;2023-05-28T07:56:53;0.40;;;0.40;;
15106;SDS011;7654;45.308;-75.096;2023-05-28T07:59:23;0.40;;;0.40;;
15106;SDS011;7654;45.308;-75.096;2023-05-28T08:01:54;0.30;;;0.30;;
15106;SDS011;7654;45.308;-75.096;2023-05-28T08:04:24;0.40;;;0.40;;
15106;SDS011;7654;45.308;-75.096;2023-05-28T08:06:54;0.30;;;0.30;;
15106;SDS011;7654;45.308;-75.096;2023-05-28T08:09:27;0.30;;;0.30;;
15106;SDS011;7654;45.308;-75.096;2023-05-28T08:11:59;0.30;;;0.30;;
15106;SDS011;7654;45.308;-75.096;2023-05-28T08:14:29;0.30;;;0.30;;
15106;SDS011;7654;45.308;-75.096;2023-05-28T08:16:59;0.40;;;0.40;;
15106;SDS011;7654;45.308;-75.096;2023-05-28T08:19:30;0.30;;;0.30;;
15106;SDS011;7654;45.308;-75.096;2023-05-28T08:22:00;0.30;;;0.30;;
15106;SDS011;7654;45.308;-75.096;2023-05-28T08:24:32;0.37;;;0.37;;
15106;SDS011;7654;45.308;-75.096;2023-05-28T08:27:03;0.40;;;0.40;;
15106;SDS011;7654;45.308;-75.096;2023-05-28T08:29:34;0.30;;;0.30;;
15106;SDS011;7654;45.308;-75.096;2023-05-28T08:32:05;0.30;;;0.30;;
15106;SDS011;7654;45.308;-75.096;2023-05-28T08:34:35;0.30;;;0.30;;
15106;SDS011;7654;45.308;-75.096;2023-05-28T08:37:05;0.40;;;0.40;;
15106;SDS011;7654;45.308;-75.096;2023-05-28T08:39:37;0.37;;;0.37;;
15106;SDS011;7654;45.308;-75.096;2023-05-28T08:42:08;0.40;;;0.40;;
15106;SDS011;7654;45.308;-75.096;2023-05-28T08:44:38;0.40;;;0.40;;
15106;SDS011;7654;45.308;-75.096;2023-05-28T08:47:09;0.30;;;0.30;;
15106;SDS011;7654;45.308;-75.096;2023-05-28T08:49:41;0.30;;;0.30;;
15106;SDS011;7654;45.308;-75.096;2023-05-28T08:52:15;0.40;;;0.40;;
15106;SDS011;7654;45.308;-75.096;2023-05-28T08:54:49;0.40;;;0.40;;
15106;SDS011;7654;45.308;-75.096;2023-05-28T08:57:20;0.30;;;0.30;;
15106;SDS011;7654;45.308;-75.096;2023-05-28T08:59:51;0.40;;;0.40;;
15106;SDS011;7654;45.308;-75.096;2023-05-28T09:02:23;0.30;;;0.30;;
15106;SDS011;7654;45.308;-75.096;2023-05-28T09:04:54;0.30;;;0.30;;
15106;SDS011;7654;45.308;-75.096;2023-05-28T09:07:25;0.30;;;0.30;;
15106;SDS011;7654;45.308;-75.096;2023-05-28T09:09:57;0.40;;;0.40;;
15106;SDS011;7654;45.308;-75.096;2023-05-28T09:12:28;0.30;;;0.30;;
15106;SDS011;7654;45.308;-75.096;2023-05-28T09:14:58;0.30;;;0.30;;
15106;SDS011;7654;45.308;-75.096;2023-05-28T09:17:32;0.30;;;0.30;;
15106;SDS011;7654;45.308;-75.096;2023-05-28T09:20:08;0.30;;;0.30;;
15106;SDS011;7654;45.308;-75.096;2023-05-28T09:22:40;0.37;;;0.37;;
15106;SDS011;7654;45.308;-75.096;2023-05-28T09:25:12;0.40;;;0.40;;
15106;SDS011;7654;45.308;-75.096;2023-05-28T09:27:43;0.30;;;0.30;;
15106;SDS011;7654;45.308;-75.096;2023-05-28T09:30:14;0.30;;;0.30;;
15106;SDS011;7654;45.308;-75.096;2023-05-28T09:32:45;0.33;;;0.33;;
15106;SDS011;7654;45.308;-75.096;2023-05-28T09:35:15;0.33;;;0.33;;
15106;SDS011;7654;45.308;-75.096;2023-05-28T09:37:46;0.30;;;0.30;;
15106;SDS011;7654;45.308;-75.096;2023-05-28T09:40:29;0.30;;;0.30;;
15106;SDS011;7654;45.308;-75.096;2023-05-28T09:42:59;0.30;;;0.30;;
15106;SDS011;7654;45.308;-75.096;2023-05-28T09:45:34;0.30;;;0.30;;
15106;SDS011;7654;45.308;-75.096;2023-05-28T09:48:04;0.40;;;0.40;;
15106;SDS011;7654;45.308;-75.096;2023-05-28T09:50:35;0.30;;;0.30;;
15106;SDS011;7654;45.308;-75.096;2023-05-28T09:53:06;0.33;;;0.33;;
15106;SDS011;7654;45.308;-75.096;2023-05-28T09:55:39;0.40;;;0.40;;
15106;SDS011;7654;45.308;-75.096;2023-05-28T09:58:09;0.30;;;0.30;;
15106;SDS011;7654;45.308;-75.096;2023-05-28T10:00:43;0.30;;;0.30;;
15106;SDS011;7654;45.308;-75.096;2023-05-28T10:03:18;0.30;;;0.30;;
15106;SDS011;7654;45.308;-75.096;2023-05-28T10:05:52;0.30;;;0.30;;
15106;SDS011;7654;45.308;-75.096;2023-05-28T10:08:27;0.30;;;0.30;;
15106;SDS011;7654;45.308;-75.096;2023-05-28T10:11:00;0.40;;;0.40;;
15106;SDS011;7654;45.308;-75.096;2023-05-28T10:13:31;0.30;;;0.30;;
15106;SDS011;7654;45.308;-75.096;2023-05-28T10:16:01;0.30;;;0.30;;
15106;SDS011;7654;45.308;-75.096;2023-05-28T10:18:32;0.40;;;0.40;;
15106;SDS011;7654;45.308;-75.096;2023-05-28T10:21:07;0.33;;;0.33;;
15106;SDS011;7654;45.308;-75.096;2023-05-28T10:23:38;0.40;;;0.40;;
15106;SDS011;7654;45.308;-75.096;2023-05-28T10:26:11;0.30;;;0.30;;
15106;SDS011;7654;45.308;-75.096;2023-05-28T10:28:43;0.30;;;0.30;;
15106;SDS011;7654;45.308;-75.096;2023-05-28T10:31:13;0.30;;;0.30;;
15106;SDS011;7654;45.308;-75.096;2023-05-28T10:33:51;0.30;;;0.30;;
15106;SDS011;7654;45.308;-75.096;2023-05-28T10:36:21;0.40;;;0.40;;
15106;SDS011;7654;45.308;-75.096;2023-05-28T10:38:56;0.33;;;0.33;;
15106;SDS011;7654;45.308;-75.096;2023-05-28T10:41:32;0.40;;;0.40;;
15106;SDS011;7654;45.308;-75.096;2023-05-28T10:44:06;0.30;;;0.30;;
15106;SDS011;7654;45.308;-75.096;2023-05-28T10:46:36;0.30;;;0.30;;
15106;SDS011;7654;45.308;-75.096;2023-05-28T10:49:11;0.37;;;0.37;;
15106;SDS011;7654;45.308;-75.096;2023-05-28T10:51:42;0.30;;;0.30;;
15106;SDS011;7654;45.308;-75.096;2023-05-28T10:54:15;0.30;;;0.30;;
15106;SDS011;7654;45.308;-75.096;2023-05-28T10:57:07;0.30;;;0.30;;
15106;SDS011;7654;45.308;-75.096;2023-05-28T10:59:42;0.40;;;0.40;;
15106;SDS011;7654;45.308;-75.096;2023-05-28T11:02:18;0.30;;;0.30;;
15106;SDS011;7654;45.308;-75.096;2023-05-28T11:04:52;0.30;;;0.30;;
15106;SDS011;7654;45.308;-75.096;2023-05-28T11:07:28;0.20;;;0.20;;
15106;SDS011;7654;45.308;-75.096;2023-05-28T11:10:00;0.30;;;0.30;;
15106;SDS011;7654;45.308;-75.096;2023-05-28T11:12:34;0.30;;;0.30;;
15106;SDS011;7654;45.308;-75.096;2023-05-28T11:15:05;0.30;;;0.30;;
15106;SDS011;7654;45.308;-75.096;2023-05-28T11:17:37;0.30;;;0.30;;
15106;SDS011;7654;45.308;-75.096;2023-05-28T11:20:15;0.40;;;0.40;;
15106;SDS011;7654;45.308;-75.096;2023-05-28T11:22:46;0.40;;;0.40;;
15106;SDS011;7654;45.308;-75.096;2023-05-28T11:25:17;0.30;;;0.30;;
15106;SDS011;7654;45.308;-75.096;2023-05-28T11:27:52;0.30;;;0.30;;
15106;SDS011;7654;45.308;-75.096;2023-05-28T11:30:25;0.30;;;0.30;;
15106;SDS011;7654;45.308;-75.096;2023-05-28T11:32:55;0.30;;;0.30;;
15106;SDS011;7654;45.308;-75.096;2023-05-28T11:35:26;0.30;;;0.30;;
15106;SDS011;7654;45.308;-75.096;2023-05-28T11:37:58;0.40;;;0.40;;
15106;SDS011;7654;45.308;-75.096;2023-05-28T11:40:33;0.40;;;0.40;;
15106;SDS011;7654;45.308;-75.096;2023-05-28T11:43:06;0.30;;;0.30;;
15106;SDS011;7654;45.308;-75.096;2023-05-28T11:45:37;0.30;;;0.30;;
15106;SDS011;7654;45.308;-75.096;2023-05-28T11:48:10;0.37;;;0.37;;
15106;SDS011;7654;45.308;-75.096;2023-05-28T11:50:41;0.40;;;0.40;;
15106;SDS011;7654;45.308;-75.096;2023-05-28T11:53:13;0.40;;;0.40;;
15106;SDS011;7654;45.308;-75.096;2023-05-28T11:55:44;0.30;;;0.30;;
15106;SDS011;7654;45.308;-75.096;2023-05-28T11:58:17;0.30;;;0.30;;
15106;SDS011;7654;45.308;-75.096;2023-05-28T12:00:57;0.30;;;0.30;;
15106;SDS011;7654;45.308;-75.096;2023-05-28T12:03:28;0.30;;;0.30;;
15106;SDS011;7654;45.308;-75.096;2023-05-28T12:05:59;0.20;;;0.20;;
15106;SDS011;7654;45.308;-75.096;2023-05-28T12:08:30;0.30;;;0.30;;
15106;SDS011;7654;45.308;-75.096;2023-05-28T12:11:01;0.27;;;0.27;;
15106;SDS011;7654;45.308;-75.096;2023-05-28T12:13:35;0.30;;;0.30;;
15106;SDS011;7654;45.308;-75.096;2023-05-28T12:16:07;0.30;;;0.30;;
15106;SDS011;7654;45.308;-75.096;2023-05-28T12:18:41;0.27;;;0.27;;
15106;SDS011;7654;45.308;-75.096;2023-05-28T12:21:12;0.30;;;0.30;;
15106;SDS011;7654;45.308;-75.096;2023-05-28T12:23:46;0.30;;;0.30;;
15106;SDS011;7654;45.308;-75.096;2023-05-28T12:26:16;0.30;;;0.30;;
15106;SDS011;7654;45.308;-75.096;2023-05-28T12:28:48;0.30;;;0.30;;
15106;SDS011;7654;45.308;-75.096;2023-05-28T12:31:19;0.33;;;0.33;;
15106;SDS011;7654;45.308;-75.096;2023-05-28T12:33:57;0.30;;;0.30;;
15106;SDS011;7654;45.308;-75.096;2023-05-28T12:36:27;0.30;;;0.30;;
15106;SDS011;7654;45.308;-75.096;2023-05-28T12:38:57;0.30;;;0.30;;
15106;SDS011;7654;45.308;-75.096;2023-05-28T12:41:28;0.20;;;0.20;;
15106;SDS011;7654;45.308;-75.096;2023-05-28T12:44:00;0.30;;;0.30;;
15106;SDS011;7654;45.308;-75.096;2023-05-28T12:46:30;0.30;;;0.30;;
15106;SDS011;7654;45.308;-75.096;2023-05-28T12:49:01;0.30;;;0.30;;
15106;SDS011;7654;45.308;-75.096;2023-05-28T12:51:31;0.30;;;0.30;;
15106;SDS011;7654;45.308;-75.096;2023-05-28T12:54:03;0.20;;;0.20;;
15106;SDS011;7654;45.308;-75.096;2023-05-28T12:56:36;0.30;;;0.30;;
15106;SDS011;7654;45.308;-75.096;2023-05-28T12:59:21;0.30;;;0.30;;
15106;SDS011;7654;45.308;-75.096;2023-05-28T13:01:52;0.30;;;0.30;;
15106;SDS011;7654;45.308;-75.096;2023-05-28T13:04:24;0.30;;;0.30;;
15106;SDS011;7654;45.308;-75.096;2023-05-28T13:06:55;0.20;;;0.20;;
15106;SDS011;7654;45.308;-75.096;2023-05-28T13:09:26;0.20;;;0.20;;
15106;SDS011;7654;45.308;-75.096;2023-05-28T13:11:57;0.20;;;0.20;;
15106;SDS011;7654;45.308;-75.096;2023-05-28T13:14:29;0.20;;;0.20;;
15106;SDS011;7654;45.308;-75.096;2023-05-28T13:17:00;0.30;;;0.30;;
15106;SDS011;7654;45.308;-75.096;2023-05-28T13:19:30;0.20;;;0.20;;
15106;SDS011;7654;45.308;-75.096;2023-05-28T13:22:01;0.20;;;0.20;;
15106;SDS011;7654;45.308;-75.096;2023-05-28T13:24:31;0.20;;;0.20;;
15106;SDS011;7654;45.308;-75.096;2023-05-28T13:27:13;0.20;;;0.20;;
15106;SDS011;7654;45.308;-75.096;2023-05-28T13:29:45;0.20;;;0.20;;
15106;SDS011;7654;45.308;-75.096;2023-05-28T13:32:20;0.30;;;0.30;;
15106;SDS011;7654;45.308;-75.096;2023-05-28T13:34:51;0.20;;;0.20;;
15106;SDS011;7654;45.308;-75.096;2023-05-28T13:37:21;0.20;;;0.20;;
15106;SDS011;7654;45.308;-75.096;2023-05-28T13:39:51;0.20;;;0.20;;
15106;SDS011;7654;45.308;-75.096;2023-05-28T13:42:22;0.20;;;0.20;;
15106;SDS011;7654;45.308;-75.096;2023-05-28T13:44:54;0.20;;;0.20;;
15106;SDS011;7654;45.308;-75.096;2023-05-28T13:47:24;0.20;;;0.20;;
15106;SDS011;7654;45.308;-75.096;2023-05-28T13:49:54;0.20;;;0.20;;
15106;SDS011;7654;45.308;-75.096;2023-05-28T13:52:24;0.30;;;0.30;;
15106;SDS011;7654;45.308;-75.096;2023-05-28T13:54:55;0.20;;;0.20;;
15106;SDS011;7654;45.308;-75.096;2023-05-28T13:57:25;0.30;;;0.30;;
15106;SDS011;7654;45.308;-75.096;2023-05-28T13:59:57;0.23;;;0.23;;
15106;SDS011;7654;45.308;-75.096;2023-05-28T14:02:34;0.20;;;0.20;;
15106;SDS011;7654;45.308;-75.096;2023-05-28T14:05:05;0.30;;;0.30;;
15106;SDS011;7654;45.308;-75.096;2023-05-28T14:07:36;0.20;;;0.20;;
15106;SDS011;7654;45.308;-75.096;2023-05-28T14:10:07;0.20;;;0.20;;
15106;SDS011;7654;45.308;-75.096;2023-05-28T14:12:38;0.20;;;0.20;;
15106;SDS011;7654;45.308;-75.096;2023-05-28T14:15:10;0.20;;;0.20;;
15106;SDS011;7654;45.308;-75.096;2023-05-28T14:17:40;0.20;;;0.20;;
15106;SDS011;7654;45.308;-75.096;2023-05-28T14:20:11;0.20;;;0.20;;
15106;SDS011;7654;45.308;-75.096;2023-05-28T14:22:41;0.30;;;0.30;;
15106;SDS011;7654;45.308;-75.096;2023-05-28T14:25:12;0.20;;;0.20;;
15106;SDS011;7654;45.308;-75.096;2023-05-28T14:27:42;0.20;;;0.20;;
15106;SDS011;7654;45.308;-75.096;2023-05-28T14:30:24;0.20;;;0.20;;
15106;SDS011;7654;45.308;-75.096;2023-05-28T14:32:54;0.20;;;0.20;;
15106;SDS011;7654;45.308;-75.096;2023-05-28T14:35:24;0.20;;;0.20;;
15106;SDS011;7654;45.308;-75.096;2023-05-28T14:37:55;0.20;;;0.20;;
15106;SDS011;7654;45.308;-75.096;2023-05-28T14:40:25;0.20;;;0.20;;
15106;SDS011;7654;45.308;-75.096;2023-05-28T14:42:56;0.20;;;0.20;;
15106;SDS011;7654;45.308;-75.096;2023-05-28T14:45:28;0.10;;;0.10;;
15106;SDS011;7654;45.308;-75.096;2023-05-28T14:47:58;0.20;;;0.20;;
15106;SDS011;7654;45.308;-75.096;2023-05-28T14:50:29;0.20;;;0.20;;
15106;SDS011;7654;45.308;-75.096;2023-05-28T14:53:00;0.20;;;0.20;;
15106;SDS011;7654;45.308;-75.096;2023-05-28T14:55:32;0.10;;;0.10;;
15106;SDS011;7654;45.308;-75.096;2023-05-28T14:58:03;0.20;;;0.20;;
15106;SDS011;7654;45.308;-75.096;2023-05-28T15:00:35;0.20;;;0.20;;